createdAt,value
2018-07-22T00:01:05.657Z,100997.08
2018-07-22T00:03:34.549Z,100999.77
2018-07-22T00:06:03.763Z,101000.91
2018-07-22T00:08:32.792Z,101001.66
2018-07-22T00:11:01.903Z,100997.23
2018-07-22T00:13:30.893Z,100998.91
2018-07-22T00:15:59.994Z,101002.62
2018-07-22T00:18:28.847Z,101002.33
2018-07-22T00:20:57.714Z,101010.69
2018-07-22T00:23:26.582Z,101012.20
2018-07-22T00:25:55.698Z,101010.19
2018-07-22T00:28:25.152Z,101005.76
2018-07-22T00:30:53.908Z,101019.66
2018-07-22T00:33:23.051Z,101017.42
2018-07-22T00:35:51.810Z,101013.81
2018-07-22T00:38:21.165Z,101019.68
2018-07-22T00:40:50.107Z,101016.40
2018-07-22T00:43:18.887Z,101016.09
2018-07-22T00:45:48.355Z,101015.59
2018-07-22T00:48:17.750Z,101017.34
2018-07-22T00:50:47.134Z,101016.89
2018-07-22T00:53:16.304Z,101019.22
2018-07-22T00:55:45.076Z,101030.14
2018-07-22T00:58:14.091Z,101018.97
2018-07-22T01:00:43.447Z,101013.98
2018-07-22T01:03:12.460Z,101015.44
2018-07-22T01:05:42.124Z,101019.39
2018-07-22T01:08:10.921Z,101022.22
2018-07-22T01:10:40.632Z,101024.92
2018-07-22T01:13:10.078Z,101025.78
2018-07-22T01:15:44.559Z,101028.25
2018-07-22T01:18:13.663Z,101023.38
2018-07-22T01:20:43.041Z,101019.73
2018-07-22T01:23:12.801Z,101029.48
2018-07-22T01:25:41.998Z,101021.51
2018-07-22T01:28:11.025Z,101029.66
2018-07-22T01:30:39.821Z,101042.28
2018-07-22T01:33:08.835Z,101044.02
2018-07-22T01:35:38.231Z,101044.60
2018-07-22T01:38:07.108Z,101037.87
2018-07-22T01:40:36.253Z,101039.02
2018-07-22T01:43:05.420Z,101035.67
2018-07-22T01:45:34.262Z,101043.27
2018-07-22T01:48:03.839Z,101039.38
2018-07-22T01:50:32.599Z,101041.40
2018-07-22T01:53:01.675Z,101035.91
2018-07-22T01:55:30.794Z,101052.02
2018-07-22T01:57:59.606Z,101040.61
2018-07-22T02:00:28.452Z,101040.02
2018-07-22T02:02:59.907Z,101036.49
2018-07-22T02:05:30.587Z,101037.73
2018-07-22T02:07:59.362Z,101038.39
2018-07-22T02:10:28.753Z,101038.39
2018-07-22T02:12:57.728Z,101042.28
2018-07-22T02:15:26.822Z,101037.57
2018-07-22T02:17:55.927Z,101034.50
2018-07-22T02:20:25.280Z,101036.52
2018-07-22T02:22:54.600Z,101030.66
2018-07-22T02:25:23.929Z,101032.13
2018-07-22T02:27:53.126Z,101030.63
2018-07-22T02:30:22.381Z,101034.88
2018-07-22T02:32:51.439Z,101038.77
2018-07-22T02:35:20.548Z,101039.50
2018-07-22T02:37:49.628Z,101040.77
2018-07-22T02:40:18.916Z,101037.57
2018-07-22T02:42:48.408Z,101032.24
2018-07-22T02:45:17.219Z,101037.28
2018-07-22T02:47:46.073Z,101038.00
2018-07-22T02:50:14.835Z,101043.48
2018-07-22T02:52:43.573Z,101040.29
2018-07-22T02:55:12.968Z,101038.69
2018-07-22T02:57:41.719Z,101043.27
2018-07-22T03:00:11.029Z,101039.14
2018-07-22T03:02:41.548Z,101036.03
2018-07-22T03:05:10.999Z,101033.52
2018-07-22T03:07:40.382Z,101038.42
2018-07-22T03:10:09.130Z,101033.29
2018-07-22T03:12:38.227Z,101033.06
2018-07-22T03:15:07.901Z,101037.18
2018-07-22T03:17:36.680Z,101030.09
2018-07-22T03:20:05.864Z,101033.19
2018-07-22T03:22:34.903Z,101036.53
2018-07-22T03:25:03.893Z,101042.80
2018-07-22T03:27:32.677Z,101046.37
2018-07-22T03:30:01.542Z,101051.27
2018-07-22T03:32:30.338Z,101055.88
2018-07-22T03:34:59.127Z,101063.11
2018-07-22T03:37:27.945Z,101068.14
2018-07-22T03:39:57.051Z,101069.31
2018-07-22T03:42:25.917Z,101074.61
2018-07-22T03:44:55.235Z,101064.01
2018-07-22T03:47:24.036Z,101068.84
2018-07-22T03:49:53.646Z,101067.37
2018-07-22T03:52:22.712Z,101068.66
2018-07-22T03:54:51.839Z,101066.73
2018-07-22T03:57:20.787Z,101067.09
2018-07-22T03:59:49.714Z,101070.98
2018-07-22T04:02:18.585Z,101071.45
2018-07-22T04:04:47.558Z,101075.38
2018-07-22T04:07:16.374Z,101074.66
2018-07-22T04:09:46.197Z,101075.67
2018-07-22T04:12:15.054Z,101080.58
2018-07-22T04:14:43.979Z,101079.14
2018-07-22T04:17:13.349Z,101074.55
2018-07-22T04:19:42.709Z,101080.28
2018-07-22T04:22:11.518Z,101077.66
2018-07-22T04:24:40.624Z,101083.73
2018-07-22T04:27:09.691Z,101077.53
2018-07-22T04:29:38.935Z,101089.40
2018-07-22T04:32:08.220Z,101083.12
2018-07-22T04:34:37.777Z,101088.03
2018-07-22T04:37:06.819Z,101083.43
2018-07-22T04:39:35.752Z,101086.05
2018-07-22T04:42:04.558Z,101090.95
2018-07-22T04:44:33.363Z,101086.58
2018-07-22T04:47:02.528Z,101092.53
2018-07-22T04:49:32.020Z,101088.64
2018-07-22T04:52:00.889Z,101099.40
2018-07-22T04:54:30.419Z,101104.07
2018-07-22T04:56:59.510Z,101106.03
2018-07-22T04:59:28.318Z,101108.06
2018-07-22T05:01:57.248Z,101111.50
2018-07-22T05:04:26.516Z,101112.39
2018-07-22T05:06:55.380Z,101115.01
2018-07-22T05:09:24.561Z,101114.52
2018-07-22T05:11:54.041Z,101117.57
2018-07-22T05:14:22.856Z,101127.94
2018-07-22T05:16:52.432Z,101126.44
2018-07-22T05:19:21.768Z,101123.92
2018-07-22T05:21:50.878Z,101129.95
2018-07-22T05:24:19.994Z,101133.45
2018-07-22T05:26:49.000Z,101136.89
2018-07-22T05:29:17.887Z,101137.55
2018-07-22T05:31:46.612Z,101143.59
2018-07-22T05:34:16.182Z,101145.16
2018-07-22T05:36:45.555Z,101135.97
2018-07-22T05:39:14.752Z,101139.05
2018-07-22T05:41:44.100Z,101138.20
2018-07-22T05:44:12.867Z,101143.49
2018-07-22T05:46:42.073Z,101144.60
2018-07-22T05:49:10.980Z,101138.70
2018-07-22T05:51:39.793Z,101151.45
2018-07-22T05:54:08.924Z,101150.19
2018-07-22T05:56:38.452Z,101148.63
2018-07-22T05:59:07.869Z,101153.36
2018-07-22T06:01:36.701Z,101157.52
2018-07-22T06:04:05.434Z,101160.50
2018-07-22T06:06:34.758Z,101166.03
2018-07-22T06:09:04.120Z,101170.02
2018-07-22T06:11:33.015Z,101170.16
2018-07-22T06:14:02.155Z,101169.36
2018-07-22T06:16:31.047Z,101180.39
2018-07-22T06:19:00.337Z,101180.38
2018-07-22T06:21:29.328Z,101188.87
2018-07-22T06:23:58.260Z,101184.96
2018-07-22T06:26:27.047Z,101193.13
2018-07-22T06:28:56.108Z,101185.84
2018-07-22T06:31:25.203Z,101184.23
2018-07-22T06:33:54.567Z,101183.77
2018-07-22T06:36:23.717Z,101176.58
2018-07-22T06:38:52.713Z,101184.41
2018-07-22T06:41:21.495Z,101186.12
2018-07-22T06:43:50.488Z,101185.55
2018-07-22T06:46:19.258Z,101189.73
2018-07-22T06:48:48.281Z,101191.89
2018-07-22T06:51:17.660Z,101193.14
2018-07-22T06:53:46.988Z,101203.44
2018-07-22T06:56:15.821Z,101202.82
2018-07-22T06:58:44.518Z,101205.93
2018-07-22T07:01:13.748Z,101201.33
2018-07-22T07:03:43.030Z,101210.83
2018-07-22T07:06:11.989Z,101205.52
2018-07-22T07:08:41.057Z,101204.04
2018-07-22T07:11:09.799Z,101207.17
2018-07-22T07:13:38.933Z,101200.46
2018-07-22T07:16:08.681Z,101203.41
2018-07-22T07:18:38.174Z,101205.14
2018-07-22T07:21:07.595Z,101201.77
2018-07-22T07:23:36.677Z,101205.43
2018-07-22T07:26:06.050Z,101211.52
2018-07-22T07:28:34.768Z,101205.34
2018-07-22T07:31:03.535Z,101211.75
2018-07-22T07:33:32.504Z,101207.92
2018-07-22T07:36:01.614Z,101211.39
2018-07-22T07:38:30.354Z,101207.93
2018-07-22T07:40:59.116Z,101215.70
2018-07-22T07:43:28.503Z,101213.63
2018-07-22T07:45:57.542Z,101214.80
2018-07-22T07:48:26.692Z,101219.66
2018-07-22T07:50:55.966Z,101219.73
2018-07-22T07:53:25.164Z,101220.98
2018-07-22T07:55:54.194Z,101224.98
2018-07-22T07:58:23.563Z,101224.27
2018-07-22T08:00:53.378Z,101224.15
2018-07-22T08:03:22.551Z,101228.05
2018-07-22T08:05:51.956Z,101228.48
2018-07-22T08:08:20.705Z,101235.48
2018-07-22T08:10:50.311Z,101233.33
2018-07-22T08:13:19.657Z,101238.25
2018-07-22T08:15:48.988Z,101232.15
2018-07-22T08:18:18.059Z,101236.97
2018-07-22T08:20:47.051Z,101235.62
2018-07-22T08:23:16.492Z,101240.83
2018-07-22T08:25:46.001Z,101240.83
2018-07-22T08:28:16.379Z,101239.48
2018-07-22T08:30:45.392Z,101247.20
2018-07-22T08:33:14.338Z,101244.03
2018-07-22T08:35:43.557Z,101248.20
2018-07-22T08:38:12.570Z,101252.16
2018-07-22T08:40:41.345Z,101256.52
2018-07-22T08:43:10.422Z,101250.98
2018-07-22T08:45:39.763Z,101248.98
2018-07-22T08:48:08.455Z,101247.41
2018-07-22T08:50:37.791Z,101255.95
2018-07-22T08:53:06.885Z,101251.98
2018-07-22T08:55:35.628Z,101249.39
2018-07-22T08:58:04.391Z,101252.19
2018-07-22T09:00:33.410Z,101249.79
2018-07-22T09:03:02.882Z,101251.98
2018-07-22T09:05:32.169Z,101248.84
2018-07-22T09:08:01.223Z,101247.64
2018-07-22T09:10:30.338Z,101245.44
2018-07-22T09:12:59.142Z,101260.67
2018-07-22T09:15:28.239Z,101266.23
2018-07-22T09:17:57.264Z,101268.38
2018-07-22T09:20:26.025Z,101274.75
2018-07-22T09:22:54.761Z,101281.70
2018-07-22T09:25:24.182Z,101281.63
2018-07-22T09:27:53.305Z,101277.20
2018-07-22T09:30:22.419Z,101285.52
2018-07-22T09:32:51.135Z,101292.42
2018-07-22T09:35:20.116Z,101287.53
2018-07-22T09:37:49.166Z,101288.72
2018-07-22T09:40:18.234Z,101290.27
2018-07-22T09:42:47.055Z,101290.25
2018-07-22T09:45:16.141Z,101290.56
2018-07-22T09:47:44.973Z,101287.33
2018-07-22T09:50:14.306Z,101288.39
2018-07-22T09:52:43.579Z,101290.19
2018-07-22T09:55:12.863Z,101288.55
2018-07-22T09:57:41.979Z,101295.89
2018-07-22T10:00:10.805Z,101292.54
2018-07-22T10:02:39.905Z,101286.62
2018-07-22T10:05:08.678Z,101293.52
2018-07-22T10:07:39.652Z,101298.02
2018-07-22T10:10:08.472Z,101289.31
2018-07-22T10:12:40.590Z,101289.41
2018-07-22T10:15:10.290Z,101286.62
2018-07-22T10:17:39.481Z,101278.39
2018-07-22T10:20:08.282Z,101274.81
2018-07-22T10:22:37.581Z,101276.00
2018-07-22T10:25:10.443Z,101274.81
2018-07-22T10:27:39.691Z,101271.56
2018-07-22T10:30:09.131Z,101276.83
2018-07-22T10:32:43.114Z,101274.63
2018-07-22T10:35:12.881Z,101275.69
2018-07-22T10:37:41.712Z,101276.84
2018-07-22T10:40:10.770Z,101277.55
2018-07-22T10:42:39.767Z,101270.06
2018-07-22T10:45:08.794Z,101280.29
2018-07-22T10:47:38.164Z,101279.70
2018-07-22T10:50:08.381Z,101277.89
2018-07-22T10:52:37.297Z,101275.22
2018-07-22T10:55:06.108Z,101272.70
2018-07-22T10:57:35.154Z,101271.49
2018-07-22T11:00:04.451Z,101276.06
2018-07-22T11:02:33.288Z,101278.27
2018-07-22T11:05:02.054Z,101268.24
2018-07-22T11:07:31.360Z,101263.84
2018-07-22T11:10:00.187Z,101271.35
2018-07-22T11:12:29.297Z,101270.08
2018-07-22T11:14:59.781Z,101273.48
2018-07-22T11:17:28.632Z,101269.48
2018-07-22T11:19:57.627Z,101267.69
2018-07-22T11:22:26.668Z,101266.16
2018-07-22T11:24:55.949Z,101263.99
2018-07-22T11:27:25.514Z,101276.75
2018-07-22T11:29:54.281Z,101271.78
2018-07-22T11:32:23.313Z,101283.55
2018-07-22T11:34:53.512Z,101280.36
2018-07-22T11:37:24.163Z,101284.83
2018-07-22T11:39:54.224Z,101278.67
2018-07-22T11:42:26.395Z,101269.66
2018-07-22T11:44:55.455Z,101274.20
2018-07-22T11:47:24.834Z,101266.38
2018-07-22T11:49:53.973Z,101265.59
2018-07-22T11:52:23.056Z,101266.16
2018-07-22T11:54:51.879Z,101267.27
2018-07-22T11:57:20.931Z,101276.23
2018-07-22T11:59:50.787Z,101272.06
2018-07-22T12:02:19.683Z,101273.48
2018-07-22T12:04:48.734Z,101279.32
2018-07-22T12:07:17.847Z,101268.28
2018-07-22T12:09:46.677Z,101269.48
2018-07-22T12:12:16.230Z,101264.33
2018-07-22T12:14:45.209Z,101273.36
2018-07-22T12:17:14.236Z,101270.30
2018-07-22T12:19:43.019Z,101265.62
2018-07-22T12:22:16.833Z,101263.72
2018-07-22T12:24:46.382Z,101268.33
2018-07-22T12:27:15.206Z,101262.62
2018-07-22T12:29:44.387Z,101265.57
2018-07-22T12:32:13.454Z,101262.84
2018-07-22T12:34:42.586Z,101266.73
2018-07-22T12:37:11.391Z,101259.74
2018-07-22T12:39:41.296Z,101256.69
2018-07-22T12:42:10.406Z,101256.14
2018-07-22T12:44:44.547Z,101259.09
2018-07-22T12:47:16.148Z,101262.98
2018-07-22T12:49:45.572Z,101261.97
2018-07-22T12:52:14.357Z,101263.09
2018-07-22T12:54:43.594Z,101257.54
2018-07-22T12:57:12.665Z,101261.45
2018-07-22T12:59:42.014Z,101249.69
2018-07-22T13:02:11.125Z,101251.66
2018-07-22T13:04:40.508Z,101245.57
2018-07-22T13:07:12.120Z,101252.44
2018-07-22T13:09:41.586Z,101251.04
2018-07-22T13:12:10.590Z,101254.48
2018-07-22T13:14:39.692Z,101251.69
2018-07-22T13:17:12.176Z,101256.17
2018-07-22T13:19:41.238Z,101251.08
2018-07-22T13:22:09.955Z,101245.34
2018-07-22T13:24:39.000Z,101251.86
2018-07-22T13:27:08.098Z,101254.05
2018-07-22T13:29:36.916Z,101258.94
2018-07-22T13:32:06.418Z,101256.65
2018-07-22T13:34:35.460Z,101251.40
2018-07-22T13:37:04.733Z,101247.44
2018-07-22T13:39:33.856Z,101237.44
2018-07-22T13:42:04.374Z,101241.60
2018-07-22T13:44:33.282Z,101241.95
2018-07-22T13:47:02.190Z,101243.99
2018-07-22T13:49:31.113Z,101241.17
2018-07-22T13:52:00.218Z,101248.89
2018-07-22T13:54:29.179Z,101248.67
2018-07-22T13:56:58.575Z,101250.70
2018-07-22T13:59:27.392Z,101255.88
2018-07-22T14:01:56.469Z,101254.11
2018-07-22T14:04:25.296Z,101257.76
2018-07-22T14:06:54.108Z,101254.33
2018-07-22T14:09:23.248Z,101254.88
2018-07-22T14:11:52.428Z,101254.28
2018-07-22T14:14:21.843Z,101256.80
2018-07-22T14:16:50.654Z,101249.79
2018-07-22T14:19:19.611Z,101258.13
2018-07-22T14:21:48.521Z,101250.82
2018-07-22T14:24:17.641Z,101260.67
2018-07-22T14:26:46.358Z,101251.20
2018-07-22T14:29:15.451Z,101256.03
2018-07-22T14:31:44.222Z,101248.28
2018-07-22T14:34:13.258Z,101243.16
2018-07-22T14:36:42.426Z,101245.58
2018-07-22T14:39:12.974Z,101251.59
2018-07-22T14:41:42.625Z,101254.26
2018-07-22T14:44:11.401Z,101246.11
2018-07-22T14:46:40.142Z,101242.25
2018-07-22T14:49:10.237Z,101255.09
2018-07-22T14:51:39.664Z,101257.01
2018-07-22T14:54:08.456Z,101250.78
2018-07-22T14:56:37.212Z,101252.58
2018-07-22T14:59:06.092Z,101252.42
2018-07-22T15:01:35.421Z,101255.55
2018-07-22T15:04:04.507Z,101248.75
2018-07-22T15:06:33.540Z,101252.81
2018-07-22T15:09:02.954Z,101252.96
2018-07-22T15:11:31.943Z,101246.16
2018-07-22T15:14:01.270Z,101253.08
2018-07-22T15:16:30.348Z,101257.34
2018-07-22T15:18:59.170Z,101253.64
2018-07-22T15:21:27.862Z,101262.59
2018-07-22T15:23:56.617Z,101253.98
2018-07-22T15:26:25.380Z,101256.84
2018-07-22T15:28:54.918Z,101257.27
2018-07-22T15:31:23.666Z,101256.88
2018-07-22T15:33:52.804Z,101254.82
2018-07-22T15:36:22.238Z,101252.28
2018-07-22T15:38:50.979Z,101252.82
2018-07-22T15:41:19.708Z,101249.39
2018-07-22T15:43:48.732Z,101244.13
2018-07-22T15:46:17.871Z,101243.73
2018-07-22T15:48:47.303Z,101246.16
2018-07-22T15:51:16.326Z,101241.67
2018-07-22T15:53:45.642Z,101247.94
2018-07-22T15:56:14.799Z,101249.58
2018-07-22T15:58:43.883Z,101247.09
2018-07-22T16:01:13.953Z,101248.59
2018-07-22T16:03:42.712Z,101240.71
2018-07-22T16:06:11.849Z,101234.72
2018-07-22T16:08:40.996Z,101248.58
2018-07-22T16:11:10.409Z,101238.39
2018-07-22T16:13:39.285Z,101241.00
2018-07-22T16:16:08.276Z,101240.11
2018-07-22T16:18:37.047Z,101233.80
2018-07-22T16:21:06.473Z,101233.37
2018-07-22T16:23:35.222Z,101244.27
2018-07-22T16:26:04.419Z,101246.87
2018-07-22T16:28:33.171Z,101238.21
2018-07-22T16:31:01.968Z,101230.88
2018-07-22T16:33:31.026Z,101232.98
2018-07-22T16:36:00.082Z,101232.98
2018-07-22T16:38:28.803Z,101233.02
2018-07-22T16:40:58.226Z,101235.23
2018-07-22T16:43:27.254Z,101229.09
2018-07-22T16:45:56.010Z,101228.41
2018-07-22T16:48:24.900Z,101232.27
2018-07-22T16:50:53.643Z,101234.70
2018-07-22T16:53:22.805Z,101222.69
2018-07-22T16:55:51.724Z,101225.36
2018-07-22T16:58:20.478Z,101230.23
2018-07-22T17:00:49.241Z,101229.52
2018-07-22T17:03:18.140Z,101227.64
2018-07-22T17:05:46.888Z,101227.84
2018-07-22T17:08:15.678Z,101229.39
2018-07-22T17:10:44.473Z,101228.95
2018-07-22T17:13:13.538Z,101228.16
2018-07-22T17:15:42.430Z,101229.42
2018-07-22T17:18:11.137Z,101228.02
2018-07-22T17:20:39.979Z,101228.10
2018-07-22T17:23:08.783Z,101225.80
2018-07-22T17:25:37.885Z,101227.59
2018-07-22T17:28:06.686Z,101217.02
2018-07-22T17:30:35.753Z,101228.76
2018-07-22T17:33:04.815Z,101232.26
2018-07-22T17:35:33.782Z,101232.27
2018-07-22T17:38:02.541Z,101239.63
2018-07-22T17:40:32.101Z,101237.61
2018-07-22T17:43:01.054Z,101236.83
2018-07-22T17:45:30.141Z,101232.83
2018-07-22T17:47:59.145Z,101239.69
2018-07-22T17:50:28.449Z,101237.46
2018-07-22T17:52:57.264Z,101239.22
2018-07-22T17:55:26.254Z,101247.66
2018-07-22T17:57:54.976Z,101250.95
2018-07-22T18:00:23.757Z,101253.41
2018-07-22T18:03:33.757Z,101258.47
2018-07-22T18:06:02.940Z,101260.11
2018-07-22T18:08:32.568Z,101254.37
2018-07-22T18:11:01.627Z,101253.08
2018-07-22T18:13:30.931Z,101261.87
2018-07-22T18:16:00.044Z,101261.09
2018-07-22T18:18:29.318Z,101260.91
2018-07-22T18:20:58.577Z,101265.27
2018-07-22T18:23:27.934Z,101271.41
2018-07-22T18:25:57.252Z,101263.67
2018-07-22T18:28:27.475Z,101272.64
2018-07-22T18:30:56.228Z,101271.25
2018-07-22T18:33:24.975Z,101280.16
2018-07-22T18:35:54.108Z,101278.80
2018-07-22T18:38:22.875Z,101280.58
2018-07-22T18:40:51.884Z,101279.77
2018-07-22T18:43:20.897Z,101275.77
2018-07-22T18:45:49.861Z,101281.91
2018-07-22T18:48:19.324Z,101279.91
2018-07-22T18:50:48.015Z,101279.89
2018-07-22T18:53:16.725Z,101283.63
2018-07-22T18:55:45.510Z,101287.58
2018-07-22T18:58:14.517Z,101285.58
2018-07-22T19:00:43.483Z,101289.09
2018-07-22T19:03:12.227Z,101292.04
2018-07-22T19:05:41.703Z,101289.84
2018-07-22T19:08:11.023Z,101292.02
2018-07-22T19:10:39.784Z,101299.33
2018-07-22T19:13:08.878Z,101305.63
2018-07-22T19:15:40.315Z,101309.16
2018-07-22T19:18:09.875Z,101313.48
2018-07-22T19:20:38.917Z,101322.55
2018-07-22T19:23:08.425Z,101318.78
2018-07-22T19:25:37.202Z,101314.98
2018-07-22T19:28:07.044Z,101319.12
2018-07-22T19:30:36.332Z,101319.09
2018-07-22T19:33:05.062Z,101322.94
2018-07-22T19:35:34.084Z,101324.06
2018-07-22T19:38:03.129Z,101328.58
2018-07-22T19:40:32.465Z,101334.64
2018-07-22T19:43:01.834Z,101336.77
2018-07-22T19:45:31.131Z,101341.44
2018-07-22T19:48:00.802Z,101346.16
2018-07-22T19:50:29.548Z,101348.06
2018-07-22T19:52:58.325Z,101350.60
2018-07-22T19:55:27.437Z,101353.28
2018-07-22T19:57:56.524Z,101358.74
2018-07-22T20:00:26.343Z,101357.91
2018-07-22T20:02:55.097Z,101361.55
2018-07-22T20:05:24.498Z,101365.05
2018-07-22T20:07:53.741Z,101367.70
2018-07-22T20:10:23.322Z,101366.20
2018-07-22T20:12:52.402Z,101373.08
2018-07-22T20:15:21.395Z,101377.05
2018-07-22T20:17:50.241Z,101375.60
2018-07-22T20:20:19.100Z,101382.68
2018-07-22T20:22:52.170Z,101381.84
2018-07-22T20:25:21.874Z,101377.62
2018-07-22T20:27:50.633Z,101379.52
2018-07-22T20:30:19.748Z,101381.38
2018-07-22T20:32:48.908Z,101386.85
2018-07-22T20:35:17.642Z,101383.78
2018-07-22T20:37:46.611Z,101388.19
2018-07-22T20:40:15.435Z,101393.47
2018-07-22T20:42:45.025Z,101389.05
2018-07-22T20:45:14.150Z,101391.18
2018-07-22T20:47:44.107Z,101391.94
2018-07-22T20:50:13.162Z,101391.44
2018-07-22T20:52:42.263Z,101396.86
2018-07-22T20:55:10.975Z,101388.66
2018-07-22T20:57:39.994Z,101397.80
2018-07-22T21:00:08.732Z,101400.53
2018-07-22T21:02:37.484Z,101396.54
2018-07-22T21:05:06.784Z,101404.23
2018-07-22T21:07:35.792Z,101400.25
2018-07-22T21:10:04.580Z,101401.62
2018-07-22T21:12:47.604Z,101393.08
2018-07-22T21:15:17.311Z,101396.94
2018-07-22T21:17:47.349Z,101394.66
2018-07-22T21:20:17.288Z,101392.33
2018-07-22T21:22:46.061Z,101392.33
2018-07-22T21:25:15.374Z,101401.94
2018-07-22T21:27:44.284Z,101401.08
2018-07-22T21:30:14.201Z,101399.06
2018-07-22T21:32:42.922Z,101404.59
2018-07-22T21:35:11.680Z,101412.06
2018-07-22T21:37:40.641Z,101411.84
2018-07-22T21:40:09.774Z,101407.25
2018-07-22T21:42:38.868Z,101413.78
2018-07-22T21:45:08.716Z,101408.86
2018-07-22T21:47:37.883Z,101416.36
2018-07-22T21:50:07.663Z,101414.16
2018-07-22T21:52:36.451Z,101411.27
2018-07-22T21:55:06.216Z,101417.58
2018-07-22T21:57:35.045Z,101416.80
2018-07-22T22:00:03.955Z,101417.92
2018-07-22T22:02:34.745Z,101417.73
2018-07-22T22:05:06.154Z,101415.12
2018-07-22T22:07:35.718Z,101419.80
2018-07-22T22:10:05.542Z,101425.62
2018-07-22T22:12:35.494Z,101429.09
2018-07-22T22:15:05.254Z,101427.08
2018-07-22T22:17:35.463Z,101427.75
2018-07-22T22:20:05.155Z,101425.73
2018-07-22T22:22:34.139Z,101425.88
2018-07-22T22:25:02.930Z,101426.59
2018-07-22T22:27:31.890Z,101428.20
2018-07-22T22:30:00.607Z,101425.88
2018-07-22T22:32:29.638Z,101427.27
2018-07-22T22:34:58.952Z,101426.45
2018-07-22T22:37:27.666Z,101421.75
2018-07-22T22:39:56.740Z,101425.88
2018-07-22T22:42:25.773Z,101433.01
2018-07-22T22:44:55.056Z,101427.05
2018-07-22T22:47:32.483Z,101430.73
2018-07-22T22:50:01.839Z,101430.25
2018-07-22T22:52:30.893Z,101448.34
2018-07-22T22:54:59.669Z,101449.34
2018-07-22T22:57:28.895Z,101446.59
2018-07-22T22:59:57.654Z,101446.54
2018-07-22T23:02:32.253Z,101446.69
2018-07-22T23:05:00.992Z,101452.12
2018-07-22T23:07:30.263Z,101450.37
2018-07-22T23:09:59.731Z,101453.28
2018-07-22T23:12:28.829Z,101450.30
2018-07-22T23:14:57.823Z,101449.29
2018-07-22T23:17:26.597Z,101447.72
2018-07-22T23:19:55.871Z,101445.25
2018-07-22T23:22:25.159Z,101455.98
2018-07-22T23:24:53.982Z,101450.75
2018-07-22T23:27:22.748Z,101445.75
2018-07-22T23:29:51.854Z,101443.47
2018-07-22T23:32:21.196Z,101443.98
2018-07-22T23:34:50.353Z,101440.58
2018-07-22T23:37:19.131Z,101440.35
2018-07-22T23:39:48.582Z,101445.22
2018-07-22T23:42:17.370Z,101445.93
2018-07-22T23:44:46.097Z,101443.31
2018-07-22T23:47:14.873Z,101440.92
2018-07-22T23:49:44.004Z,101440.70
2018-07-22T23:52:13.302Z,101443.03
2018-07-22T23:54:42.656Z,101444.19
2018-07-22T23:57:11.358Z,101440.56
2018-07-22T23:59:40.171Z,101437.94
